Terminal Aerodrome Forecast
Issued by NWS Topeka, KS

Home | Current Version | Previous Version | Text Only | Print | Product List | Glossary Off
Versions: 1 2 3 4 5 6 7 8 9 10 11 12 13 14 15 16 17 18 19 20

000
FTUS43 KTOP 251700
TAFTOP
TAF
KTOP 251732Z 2518/2618 21008KT P6SM FEW200
     FM260000 16008KT P6SM OVC080
     FM260600 25010KT P6SM VCSH SCT030 BKN050
     FM261300 31012KT P6SM SCT030 BKN050=

USA.gov is the U.S. government's official web portal to all federal, state and local government web resources and services.